<?xml version="1.0" encoding="UTF-8" standalone="no" ?>
<gpx xmlns="http://www.topografix.com/GPX/1/1" xmlns:xsi="http://www.w3.org/2001/XMLSchema-instance" xsi:schemaLocation="http://www.topografix.com/GPX/1/1 http://www.topografix.com/GPX/1/1/gpx.xsd" version="1.1" creator="VisuGPX - https://www.visugpx.com">
  <metadata>
    <name>Pech David 10+200</name>
  </metadata>
  <trk>
    <name><![CDATA[7000238-Pech David]]></name>
    <trkseg>
      <trkpt lat="43.57533" lon="1.44307">
        <ele>149</ele>
        <time>2020-03-11T09:52:54Z</time>
      </trkpt>
      <trkpt lat="43.57391" lon="1.44098">
        <ele>158</ele>
        <time>2020-03-11T09:54:38Z</time>
      </trkpt>
      <trkpt lat="43.57347" lon="1.44115">
        <ele>166</ele>
        <time>2020-03-11T09:55:01Z</time>
      </trkpt>
      <trkpt lat="43.57293" lon="1.44147">
        <ele>176</ele>
        <time>2020-03-11T09:55:30Z</time>
      </trkpt>
      <trkpt lat="43.57239" lon="1.44149">
        <ele>181</ele>
        <time>2020-03-11T09:55:57Z</time>
      </trkpt>
      <trkpt lat="43.5717" lon="1.44156">
        <ele>185</ele>
        <time>2020-03-11T09:56:32Z</time>
      </trkpt>
      <trkpt lat="43.57095" lon="1.44171">
        <ele>192</ele>
        <time>2020-03-11T09:57:10Z</time>
      </trkpt>
      <trkpt lat="43.5703" lon="1.44199">
        <ele>196</ele>
        <time>2020-03-11T09:57:44Z</time>
      </trkpt>
      <trkpt lat="43.56965" lon="1.44201">
        <ele>199</ele>
        <time>2020-03-11T09:58:16Z</time>
      </trkpt>
      <trkpt lat="43.56878" lon="1.44216">
        <ele>209</ele>
        <time>2020-03-11T09:59:00Z</time>
      </trkpt>
      <trkpt lat="43.56831" lon="1.44231">
        <ele>217</ele>
        <time>2020-03-11T09:59:24Z</time>
      </trkpt>
      <trkpt lat="43.56736" lon="1.44218">
        <ele>213</ele>
        <time>2020-03-11T10:00:12Z</time>
      </trkpt>
      <trkpt lat="43.56668" lon="1.44214">
        <ele>210</ele>
        <time>2020-03-11T10:00:46Z</time>
      </trkpt>
      <trkpt lat="43.56556" lon="1.44304">
        <ele>213</ele>
        <time>2020-03-11T10:01:51Z</time>
      </trkpt>
      <trkpt lat="43.565" lon="1.44212">
        <ele>191</ele>
        <time>2020-03-11T10:02:35Z</time>
      </trkpt>
      <trkpt lat="43.56418" lon="1.44276">
        <ele>199</ele>
        <time>2020-03-11T10:03:22Z</time>
      </trkpt>
      <trkpt lat="43.5634" lon="1.4433">
        <ele>203</ele>
        <time>2020-03-11T10:04:05Z</time>
      </trkpt>
      <trkpt lat="43.56285" lon="1.44426">
        <ele>215</ele>
        <time>2020-03-11T10:04:50Z</time>
      </trkpt>
      <trkpt lat="43.56226" lon="1.44499">
        <ele>223</ele>
        <time>2020-03-11T10:05:29Z</time>
      </trkpt>
      <trkpt lat="43.56192" lon="1.44546">
        <ele>227</ele>
        <time>2020-03-11T10:05:54Z</time>
      </trkpt>
      <trkpt lat="43.56191" lon="1.44521">
        <ele>226</ele>
        <time>2020-03-11T10:06:03Z</time>
      </trkpt>
      <trkpt lat="43.56189" lon="1.44478">
        <ele>225</ele>
        <time>2020-03-11T10:06:18Z</time>
      </trkpt>
      <trkpt lat="43.56161" lon="1.44439">
        <ele>226</ele>
        <time>2020-03-11T10:06:38Z</time>
      </trkpt>
      <trkpt lat="43.56136" lon="1.44398">
        <ele>226</ele>
        <time>2020-03-11T10:06:58Z</time>
      </trkpt>
      <trkpt lat="43.5611" lon="1.44355">
        <ele>226</ele>
        <time>2020-03-11T10:07:18Z</time>
      </trkpt>
      <trkpt lat="43.56069" lon="1.4436">
        <ele>224</ele>
        <time>2020-03-11T10:07:38Z</time>
      </trkpt>
      <trkpt lat="43.56041" lon="1.44424">
        <ele>225</ele>
        <time>2020-03-11T10:08:06Z</time>
      </trkpt>
      <trkpt lat="43.55957" lon="1.44521">
        <ele>237</ele>
        <time>2020-03-11T10:09:00Z</time>
      </trkpt>
      <trkpt lat="43.55898" lon="1.44555">
        <ele>242</ele>
        <time>2020-03-11T10:09:32Z</time>
      </trkpt>
      <trkpt lat="43.55845" lon="1.44589">
        <ele>249</ele>
        <time>2020-03-11T10:10:02Z</time>
      </trkpt>
      <trkpt lat="43.55766" lon="1.44566">
        <ele>244</ele>
        <time>2020-03-11T10:10:42Z</time>
      </trkpt>
      <trkpt lat="43.55705" lon="1.44529">
        <ele>234</ele>
        <time>2020-03-11T10:11:15Z</time>
      </trkpt>
      <trkpt lat="43.55637" lon="1.44446">
        <ele>224</ele>
        <time>2020-03-11T10:12:01Z</time>
      </trkpt>
      <trkpt lat="43.55597" lon="1.44373">
        <ele>216</ele>
        <time>2020-03-11T10:12:34Z</time>
      </trkpt>
      <trkpt lat="43.55541" lon="1.44313">
        <ele>205</ele>
        <time>2020-03-11T10:13:10Z</time>
      </trkpt>
      <trkpt lat="43.55499" lon="1.44345">
        <ele>209</ele>
        <time>2020-03-11T10:13:34Z</time>
      </trkpt>
      <trkpt lat="43.55455" lon="1.4434">
        <ele>211</ele>
        <time>2020-03-11T10:13:56Z</time>
      </trkpt>
      <trkpt lat="43.55415" lon="1.44313">
        <ele>208</ele>
        <time>2020-03-11T10:14:18Z</time>
      </trkpt>
      <trkpt lat="43.55365" lon="1.44304">
        <ele>209</ele>
        <time>2020-03-11T10:14:43Z</time>
      </trkpt>
      <trkpt lat="43.5532" lon="1.44287">
        <ele>207</ele>
        <time>2020-03-11T10:15:06Z</time>
      </trkpt>
      <trkpt lat="43.55272" lon="1.44287">
        <ele>209</ele>
        <time>2020-03-11T10:15:30Z</time>
      </trkpt>
      <trkpt lat="43.5522" lon="1.443">
        <ele>212</ele>
        <time>2020-03-11T10:15:57Z</time>
      </trkpt>
      <trkpt lat="43.55189" lon="1.44308">
        <ele>212</ele>
        <time>2020-03-11T10:16:13Z</time>
      </trkpt>
      <trkpt lat="43.55146" lon="1.44257">
        <ele>212</ele>
        <time>2020-03-11T10:16:41Z</time>
      </trkpt>
      <trkpt lat="43.55127" lon="1.44216">
        <ele>206</ele>
        <time>2020-03-11T10:16:59Z</time>
      </trkpt>
      <trkpt lat="43.55101" lon="1.44201">
        <ele>208</ele>
        <time>2020-03-11T10:17:13Z</time>
      </trkpt>
      <trkpt lat="43.55077" lon="1.44175">
        <ele>208</ele>
        <time>2020-03-11T10:17:28Z</time>
      </trkpt>
      <trkpt lat="43.55055" lon="1.44156">
        <ele>200</ele>
        <time>2020-03-11T10:17:41Z</time>
      </trkpt>
      <trkpt lat="43.55026" lon="1.44182">
        <ele>198</ele>
        <time>2020-03-11T10:17:58Z</time>
      </trkpt>
      <trkpt lat="43.5502" lon="1.44139">
        <ele>191</ele>
        <time>2020-03-11T10:18:14Z</time>
      </trkpt>
      <trkpt lat="43.54982" lon="1.44145">
        <ele>186</ele>
        <time>2020-03-11T10:18:33Z</time>
      </trkpt>
      <trkpt lat="43.5499" lon="1.44019">
        <ele>163</ele>
        <time>2020-03-11T10:19:19Z</time>
      </trkpt>
      <trkpt lat="43.54967" lon="1.44098">
        <ele>176</ele>
        <time>2020-03-11T10:19:50Z</time>
      </trkpt>
      <trkpt lat="43.54933" lon="1.44147">
        <ele>174</ele>
        <time>2020-03-11T10:20:15Z</time>
      </trkpt>
      <trkpt lat="43.5502" lon="1.4431">
        <ele>194</ele>
        <time>2020-03-11T10:21:28Z</time>
      </trkpt>
      <trkpt lat="43.55049" lon="1.44557">
        <ele>212</ele>
        <time>2020-03-11T10:22:59Z</time>
      </trkpt>
      <trkpt lat="43.55048" lon="1.44727">
        <ele>223</ele>
        <time>2020-03-11T10:24:01Z</time>
      </trkpt>
      <trkpt lat="43.55213" lon="1.44866">
        <ele>224</ele>
        <time>2020-03-11T10:25:37Z</time>
      </trkpt>
      <trkpt lat="43.55296" lon="1.45018">
        <ele>217</ele>
        <time>2020-03-11T10:26:46Z</time>
      </trkpt>
      <trkpt lat="43.55338" lon="1.45119">
        <ele>212</ele>
        <time>2020-03-11T10:27:29Z</time>
      </trkpt>
      <trkpt lat="43.55416" lon="1.45227">
        <ele>212</ele>
        <time>2020-03-11T10:28:24Z</time>
      </trkpt>
      <trkpt lat="43.55466" lon="1.45437">
        <ele>205</ele>
        <time>2020-03-11T10:29:44Z</time>
      </trkpt>
      <trkpt lat="43.55584" lon="1.45604">
        <ele>199</ele>
        <time>2020-03-11T10:31:09Z</time>
      </trkpt>
      <trkpt lat="43.55645" lon="1.4563">
        <ele>198</ele>
        <time>2020-03-11T10:31:41Z</time>
      </trkpt>
      <trkpt lat="43.55719" lon="1.45619">
        <ele>195</ele>
        <time>2020-03-11T10:32:18Z</time>
      </trkpt>
      <trkpt lat="43.55763" lon="1.45609">
        <ele>194</ele>
        <time>2020-03-11T10:32:40Z</time>
      </trkpt>
      <trkpt lat="43.55749" lon="1.45514">
        <ele>197</ele>
        <time>2020-03-11T10:33:15Z</time>
      </trkpt>
      <trkpt lat="43.55751" lon="1.45409">
        <ele>206</ele>
        <time>2020-03-11T10:33:53Z</time>
      </trkpt>
      <trkpt lat="43.55743" lon="1.45246">
        <ele>226</ele>
        <time>2020-03-11T10:34:53Z</time>
      </trkpt>
      <trkpt lat="43.55726" lon="1.45224">
        <ele>229</ele>
        <time>2020-03-11T10:35:04Z</time>
      </trkpt>
      <trkpt lat="43.55721" lon="1.45199">
        <ele>231</ele>
        <time>2020-03-11T10:35:14Z</time>
      </trkpt>
      <trkpt lat="43.55677" lon="1.45222">
        <ele>232</ele>
        <time>2020-03-11T10:35:37Z</time>
      </trkpt>
      <trkpt lat="43.55611" lon="1.45244">
        <ele>234</ele>
        <time>2020-03-11T10:36:11Z</time>
      </trkpt>
      <trkpt lat="43.55586" lon="1.45216">
        <ele>236</ele>
        <time>2020-03-11T10:36:27Z</time>
      </trkpt>
      <trkpt lat="43.55534" lon="1.45098">
        <ele>241</ele>
        <time>2020-03-11T10:37:17Z</time>
      </trkpt>
      <trkpt lat="43.55517" lon="1.45061">
        <ele>241</ele>
        <time>2020-03-11T10:37:33Z</time>
      </trkpt>
      <trkpt lat="43.5548" lon="1.45036">
        <ele>236</ele>
        <time>2020-03-11T10:37:54Z</time>
      </trkpt>
      <trkpt lat="43.5545" lon="1.45016">
        <ele>232</ele>
        <time>2020-03-11T10:38:11Z</time>
      </trkpt>
      <trkpt lat="43.55388" lon="1.45061">
        <ele>220</ele>
        <time>2020-03-11T10:38:46Z</time>
      </trkpt>
      <trkpt lat="43.5534" lon="1.45027">
        <ele>216</ele>
        <time>2020-03-11T10:39:13Z</time>
      </trkpt>
      <trkpt lat="43.55309" lon="1.45031">
        <ele>216</ele>
        <time>2020-03-11T10:39:28Z</time>
      </trkpt>
      <trkpt lat="43.55304" lon="1.44993">
        <ele>218</ele>
        <time>2020-03-11T10:39:42Z</time>
      </trkpt>
      <trkpt lat="43.55373" lon="1.4489">
        <ele>223</ele>
        <time>2020-03-11T10:40:33Z</time>
      </trkpt>
      <trkpt lat="43.55415" lon="1.44823">
        <ele>224</ele>
        <time>2020-03-11T10:41:05Z</time>
      </trkpt>
      <trkpt lat="43.55458" lon="1.44776">
        <ele>230</ele>
        <time>2020-03-11T10:41:33Z</time>
      </trkpt>
      <trkpt lat="43.55503" lon="1.44735">
        <ele>233</ele>
        <time>2020-03-11T10:42:00Z</time>
      </trkpt>
      <trkpt lat="43.556" lon="1.44707">
        <ele>239</ele>
        <time>2020-03-11T10:42:49Z</time>
      </trkpt>
      <trkpt lat="43.55653" lon="1.4472">
        <ele>244</ele>
        <time>2020-03-11T10:43:16Z</time>
      </trkpt>
      <trkpt lat="43.55727" lon="1.44731">
        <ele>252</ele>
        <time>2020-03-11T10:43:53Z</time>
      </trkpt>
      <trkpt lat="43.55791" lon="1.44703">
        <ele>257</ele>
        <time>2020-03-11T10:44:27Z</time>
      </trkpt>
      <trkpt lat="43.55866" lon="1.4469">
        <ele>258</ele>
        <time>2020-03-11T10:45:05Z</time>
      </trkpt>
      <trkpt lat="43.55911" lon="1.44662">
        <ele>256</ele>
        <time>2020-03-11T10:45:30Z</time>
      </trkpt>
      <trkpt lat="43.55978" lon="1.44675">
        <ele>248</ele>
        <time>2020-03-11T10:46:03Z</time>
      </trkpt>
      <trkpt lat="43.56027" lon="1.44692">
        <ele>244</ele>
        <time>2020-03-11T10:46:29Z</time>
      </trkpt>
      <trkpt lat="43.56065" lon="1.44712">
        <ele>243</ele>
        <time>2020-03-11T10:46:49Z</time>
      </trkpt>
      <trkpt lat="43.5611" lon="1.44699">
        <ele>240</ele>
        <time>2020-03-11T10:47:12Z</time>
      </trkpt>
      <trkpt lat="43.56155" lon="1.44716">
        <ele>239</ele>
        <time>2020-03-11T10:47:35Z</time>
      </trkpt>
      <trkpt lat="43.56275" lon="1.44669">
        <ele>236</ele>
        <time>2020-03-11T10:48:38Z</time>
      </trkpt>
      <trkpt lat="43.56329" lon="1.4463">
        <ele>233</ele>
        <time>2020-03-11T10:49:08Z</time>
      </trkpt>
      <trkpt lat="43.56418" lon="1.44546">
        <ele>232</ele>
        <time>2020-03-11T10:50:02Z</time>
      </trkpt>
      <trkpt lat="43.56498" lon="1.4448">
        <ele>230</ele>
        <time>2020-03-11T10:50:49Z</time>
      </trkpt>
      <trkpt lat="43.56624" lon="1.4439">
        <ele>228</ele>
        <time>2020-03-11T10:52:00Z</time>
      </trkpt>
      <trkpt lat="43.56649" lon="1.44428">
        <ele>230</ele>
        <time>2020-03-11T10:52:19Z</time>
      </trkpt>
      <trkpt lat="43.56665" lon="1.44523">
        <ele>229</ele>
        <time>2020-03-11T10:52:54Z</time>
      </trkpt>
      <trkpt lat="43.56671" lon="1.44604">
        <ele>225</ele>
        <time>2020-03-11T10:53:23Z</time>
      </trkpt>
      <trkpt lat="43.56697" lon="1.446">
        <ele>224</ele>
        <time>2020-03-11T10:53:37Z</time>
      </trkpt>
      <trkpt lat="43.56719" lon="1.44606">
        <ele>222</ele>
        <time>2020-03-11T10:53:48Z</time>
      </trkpt>
      <trkpt lat="43.56746" lon="1.44604">
        <ele>221</ele>
        <time>2020-03-11T10:54:01Z</time>
      </trkpt>
      <trkpt lat="43.56771" lon="1.44585">
        <ele>219</ele>
        <time>2020-03-11T10:54:16Z</time>
      </trkpt>
      <trkpt lat="43.568" lon="1.44624">
        <ele>211</ele>
        <time>2020-03-11T10:54:36Z</time>
      </trkpt>
      <trkpt lat="43.56851" lon="1.44527">
        <ele>214</ele>
        <time>2020-03-11T10:55:19Z</time>
      </trkpt>
      <trkpt lat="43.56901" lon="1.44476">
        <ele>210</ele>
        <time>2020-03-11T10:55:50Z</time>
      </trkpt>
      <trkpt lat="43.56929" lon="1.44443">
        <ele>208</ele>
        <time>2020-03-11T10:56:09Z</time>
      </trkpt>
      <trkpt lat="43.57004" lon="1.44491">
        <ele>195</ele>
        <time>2020-03-11T10:56:50Z</time>
      </trkpt>
      <trkpt lat="43.57021" lon="1.44411">
        <ele>199</ele>
        <time>2020-03-11T10:57:20Z</time>
      </trkpt>
      <trkpt lat="43.57035" lon="1.44338">
        <ele>197</ele>
        <time>2020-03-11T10:57:48Z</time>
      </trkpt>
      <trkpt lat="43.57064" lon="1.44295">
        <ele>196</ele>
        <time>2020-03-11T10:58:09Z</time>
      </trkpt>
      <trkpt lat="43.57094" lon="1.44302">
        <ele>192</ele>
        <time>2020-03-11T10:58:24Z</time>
      </trkpt>
      <trkpt lat="43.57134" lon="1.44173">
        <ele>190</ele>
        <time>2020-03-11T10:59:15Z</time>
      </trkpt>
      <trkpt lat="43.57152" lon="1.44157">
        <ele>183.8</ele>
      </trkpt>
      <trkpt lat="43.57294" lon="1.44151">
        <ele>174</ele>
      </trkpt>
      <trkpt lat="43.57391" lon="1.44102">
        <ele>160.6</ele>
      </trkpt>
      <trkpt lat="43.57528" lon="1.44303">
        <ele>148.8</ele>
      </trkpt>
    </trkseg>
  </trk>
</gpx>